Villaguay, Argentina
Current Conditions -  °F | °C
As of 8:00 PM on Wednesday 26 Nov 2014 (Local Time) from SUSO Reporting Station
Clear Clear  
Wind Chill: 72°   Ceiling: Unl
Heat Index: 72°   Visibility: 6mi
Dew Point: 61°   Wind: 6mph
Humidity: 69%   Direction: 200°SSW
Pressure: 29.88"   Gusts: NA
Location:  31.85°S, 59.02°W
Report Text: SUSO 262300Z 20005KT CAVOK 22/16 Q1012
Loading
Personal Weather Stations






























Interactive Weather Map New forecast layout! Learn more

10-Day Weather Forecast

Advertisements
Track Severe Weather on mobile